Time;durP1;ratioP1;P1;durP2;ratioP2;P2;SDS_P1;SDS_P2;PMS_P1;PMS_P2;Temp;Humidity;BMP_temperature;BMP_pressure;BME280_temperature;BME280_humidity;BME280_pressure;Samples;Min_cycle;Max_cycle;Signal;HPM_P1;HPM_P2
2023/04/12 00:00:26;;;;;;;1.38;0.80;;;;;;;;;;4953178;28;20515;-73
2023/04/12 00:02:53;;;;;;;1.52;1.35;;;;;;;;;;4963720;28;20034;-75
2023/04/12 00:05:25;;;;;;;1.27;0.90;;;;;;;;;;4970886;28;20054;-73
2023/04/12 00:07:52;;;;;;;5.72;1.55;;;;;;;;;;4970768;28;20023;-74
2023/04/12 00:10:18;;;;;;;1.45;1.38;;;;;;;;;;4969974;28;20054;-72
2023/04/12 00:12:45;;;;;;;1.20;0.82;;;;;;;;;;4969588;28;20118;-74
2023/04/12 00:15:11;;;;;;;2.35;1.25;;;;;;;;;;4967441;28;20510;-72
2023/04/12 00:17:37;;;;;;;1.63;1.40;;;;;;;;;;4968954;28;20829;-72
2023/04/12 00:20:11;;;;;;;1.35;1.25;;;;;;;;;;4958891;28;20031;-72
2023/04/12 00:22:37;;;;;;;1.73;1.20;;;;;;;;;;4949989;28;20019;-73
2023/04/12 00:25:04;;;;;;;1.15;1.13;;;;;;;;;;4950083;28;20027;-74
2023/04/12 00:27:30;;;;;;;1.95;1.33;;;;;;;;;;4950825;28;20042;-74
2023/04/12 00:29:56;;;;;;;1.65;1.25;;;;;;;;;;4950669;28;20029;-74
2023/04/12 00:32:22;;;;;;;3.92;1.60;;;;;;;;;;4949644;28;20383;-71
2023/04/12 00:34:48;;;;;;;3.20;1.80;;;;;;;;;;4949607;28;20183;-71
2023/04/12 00:37:14;;;;;;;4.25;1.60;;;;;;;;;;4949306;28;20095;-76
2023/04/12 00:39:40;;;;;;;1.27;1.00;;;;;;;;;;4948546;28;20131;-74
2023/04/12 00:42:06;;;;;;;2.65;1.60;;;;;;;;;;4973913;28;20105;-72
2023/04/12 00:44:32;;;;;;;2.92;2.08;;;;;;;;;;4986108;28;20105;-73
2023/04/12 00:46:59;;;;;;;2.65;1.25;;;;;;;;;;4987719;28;20399;-73
2023/04/12 00:49:29;;;;;;;4.70;1.83;;;;;;;;;;4987882;28;20117;-75
2023/04/12 00:52:02;;;;;;;2.70;1.35;;;;;;;;;;4987342;28;20014;-74
2023/04/12 00:54:29;;;;;;;1.60;1.10;;;;;;;;;;4987604;28;20058;-74
2023/04/12 00:56:56;;;;;;;2.88;1.92;;;;;;;;;;4975541;28;20514;-73
2023/04/12 00:59:22;;;;;;;3.60;1.58;;;;;;;;;;4968154;28;20198;-72
2023/04/12 01:01:48;;;;;;;2.17;1.80;;;;;;;;;;4969042;28;20054;-71
2023/04/12 01:04:15;;;;;;;1.48;1.38;;;;;;;;;;4969730;28;20035;-74
2023/04/12 01:06:56;;;;;;;3.45;2.00;;;;;;;;;;4969814;28;20107;-73
2023/04/12 01:09:38;;;;;;;3.03;1.58;;;;;;;;;;4969401;28;20343;-75
2023/04/12 01:12:16;;;;;;;3.20;1.17;;;;;;;;;;4969468;28;20347;-72
2023/04/12 01:14:57;;;;;;;3.28;1.80;;;;;;;;;;4970871;28;20101;-75
2023/04/12 01:17:27;;;;;;;1.67;1.58;;;;;;;;;;4971139;28;20060;-73
2023/04/12 01:19:56;;;;;;;3.40;1.88;;;;;;;;;;4971215;28;20062;-74
2023/04/12 01:22:31;;;;;;;3.55;2.03;;;;;;;;;;4970843;28;20187;-73
2023/04/12 01:25:31;;;;;;;3.00;1.45;;;;;;;;;;4970487;28;20579;-72
2023/04/12 01:27:59;;;;;;;3.65;1.73;;;;;;;;;;4938661;28;20085;-72
2023/04/12 01:30:27;;;;;;;4.60;1.70;;;;;;;;;;4969941;28;20046;-72
2023/04/12 01:32:54;;;;;;;4.30;1.70;;;;;;;;;;4970673;28;20042;-71
2023/04/12 01:35:22;;;;;;;3.42;1.83;;;;;;;;;;4970134;28;20023;-76
2023/04/12 01:37:48;;;;;;;3.65;1.50;;;;;;;;;;4970920;28;20106;-75
2023/04/12 01:40:15;;;;;;;4.75;1.80;;;;;;;;;;4970409;28;20027;-73
2023/04/12 01:42:41;;;;;;;3.55;1.48;;;;;;;;;;4971154;28;20109;-71
2023/04/12 01:45:07;;;;;;;4.55;2.30;;;;;;;;;;4971059;28;20022;-71
2023/04/12 01:47:34;;;;;;;3.13;1.40;;;;;;;;;;4970699;28;20023;-71
2023/04/12 01:50:26;;;;;;;1.73;1.58;;;;;;;;;;4970731;28;20037;-74
2023/04/12 01:53:01;;;;;;;3.63;2.25;;;;;;;;;;4967487;28;20051;-72
2023/04/12 01:55:29;;;;;;;1.45;1.30;;;;;;;;;;4970622;28;20077;-71
2023/04/12 01:57:56;;;;;;;3.17;2.08;;;;;;;;;;4970734;28;20037;-75
2023/04/12 02:00:23;;;;;;;2.53;1.85;;;;;;;;;;4970749;28;20023;-71
2023/04/12 02:02:49;;;;;;;3.38;2.55;;;;;;;;;;4971140;28;20031;-71
2023/04/12 02:05:16;;;;;;;2.05;1.70;;;;;;;;;;4970839;28;20109;-71
2023/04/12 02:07:42;;;;;;;4.80;2.40;;;;;;;;;;4970850;28;20426;-72
2023/04/12 02:10:13;;;;;;;4.07;2.45;;;;;;;;;;4970716;28;20078;-71
2023/04/12 02:12:39;;;;;;;5.30;2.10;;;;;;;;;;4971687;28;20531;-74
2023/04/12 02:15:06;;;;;;;4.05;2.17;;;;;;;;;;4973052;28;20030;-71
2023/04/12 02:17:33;;;;;;;4.85;2.42;;;;;;;;;;4972972;28;20479;-71
2023/04/12 02:19:59;;;;;;;12.02;3.33;;;;;;;;;;4973058;28;20516;-71
2023/04/12 02:22:25;;;;;;;6.90;2.30;;;;;;;;;;4972255;28;20031;-73
2023/04/12 02:24:54;;;;;;;2.42;2.22;;;;;;;;;;4972227;28;20023;-71
2023/04/12 02:27:20;;;;;;;4.33;3.13;;;;;;;;;;4972416;28;20027;-71
2023/04/12 02:29:46;;;;;;;4.72;2.78;;;;;;;;;;4972185;28;20109;-73
2023/04/12 02:32:12;;;;;;;3.42;2.47;;;;;;;;;;4972064;28;20407;-71
2023/04/12 02:34:38;;;;;;;2.25;2.10;;;;;;;;;;4972602;28;20030;-71
2023/04/12 02:37:06;;;;;;;4.15;2.78;;;;;;;;;;4973012;28;20030;-71
2023/04/12 02:39:33;;;;;;;3.15;2.28;;;;;;;;;;4972797;28;20023;-71
2023/04/12 02:42:00;;;;;;;6.03;2.38;;;;;;;;;;4972158;28;20022;-71
2023/04/12 02:44:28;;;;;;;6.18;2.42;;;;;;;;;;4972115;28;20046;-74
2023/04/12 02:46:55;;;;;;;4.47;3.20;;;;;;;;;;4973003;28;20494;-77
2023/04/12 02:49:21;;;;;;;3.22;2.22;;;;;;;;;;4973692;28;20114;-76
2023/04/12 02:51:47;;;;;;;6.35;2.78;;;;;;;;;;4973507;28;20099;-78
2023/04/12 02:54:13;;;;;;;6.68;2.20;;;;;;;;;;4973171;28;20027;-76
2023/04/12 02:56:39;;;;;;;2.63;2.40;;;;;;;;;;4973729;28;20407;-76
2023/04/12 02:59:05;;;;;;;3.95;2.22;;;;;;;;;;4973200;28;20022;-76
2023/04/12 03:01:33;;;;;;;3.55;2.55;;;;;;;;;;4973383;28;20263;-76
2023/04/12 03:04:00;;;;;;;3.90;2.22;;;;;;;;;;4973106;28;20027;-72
2023/04/12 03:06:28;;;;;;;2.63;1.98;;;;;;;;;;4973002;28;20480;-71
2023/04/12 03:08:56;;;;;;;5.00;2.80;;;;;;;;;;4972876;28;20039;-71
2023/04/12 03:11:22;;;;;;;1.88;1.77;;;;;;;;;;4973022;28;20515;-71
2023/04/12 03:13:48;;;;;;;3.55;2.60;;;;;;;;;;4973235;28;20122;-72
2023/04/12 03:16:28;;;;;;;2.58;2.35;;;;;;;;;;4973338;28;20453;-71
2023/04/12 03:18:55;;;;;;;4.28;3.03;;;;;;;;;;4971757;28;20121;-71
2023/04/12 03:21:21;;;;;;;6.93;2.33;;;;;;;;;;4973204;28;20018;-72
2023/04/12 03:23:47;;;;;;;4.10;1.88;;;;;;;;;;4972763;28;20030;-72
2023/04/12 03:26:13;;;;;;;2.53;1.98;;;;;;;;;;4972417;28;20033;-72
2023/04/12 03:28:41;;;;;;;3.47;2.05;;;;;;;;;;4973253;28;20031;-72
2023/04/12 03:31:07;;;;;;;5.13;2.35;;;;;;;;;;4973443;28;20031;-70
2023/04/12 03:33:33;;;;;;;5.90;2.55;;;;;;;;;;4973271;28;20042;-71
2023/04/12 03:36:02;;;;;;;6.50;2.50;;;;;;;;;;4971939;28;20038;-71
2023/04/12 03:38:28;;;;;;;10.38;3.22;;;;;;;;;;4972591;28;20035;-72
2023/04/12 03:40:54;;;;;;;8.88;2.85;;;;;;;;;;4971892;28;20019;-72
2023/04/12 03:43:21;;;;;;;5.60;2.78;;;;;;;;;;4971740;28;20055;-72
2023/04/12 03:45:47;;;;;;;4.30;2.97;;;;;;;;;;4973314;28;20037;-71
2023/04/12 03:48:13;;;;;;;3.85;2.08;;;;;;;;;;4972752;28;20081;-71
2023/04/12 03:50:43;;;;;;;4.97;3.13;;;;;;;;;;4972858;28;20030;-75
2023/04/12 03:53:10;;;;;;;3.53;3.22;;;;;;;;;;4972445;28;20042;-71
2023/04/12 03:55:36;;;;;;;6.07;2.25;;;;;;;;;;4972363;28;20026;-72
2023/04/12 03:58:02;;;;;;;7.82;2.40;;;;;;;;;;4974074;28;20034;-76
2023/04/12 04:00:32;;;;;;;3.28;2.97;;;;;;;;;;4978490;28;20023;-71
2023/04/12 04:03:02;;;;;;;5.70;3.22;;;;;;;;;;4974482;28;20086;-70
2023/04/12 04:05:31;;;;;;;4.35;3.05;;;;;;;;;;4974466;28;20062;-71
2023/04/12 04:07:59;;;;;;;6.38;3.10;;;;;;;;;;4974723;28;20046;-72
2023/04/12 04:10:28;;;;;;;6.88;3.53;;;;;;;;;;4973608;28;20443;-72
2023/04/12 04:12:54;;;;;;;6.97;2.88;;;;;;;;;;4973703;28;20376;-71
2023/04/12 04:15:20;;;;;;;6.03;3.10;;;;;;;;;;4978685;28;20360;-72
2023/04/12 04:17:47;;;;;;;2.25;2.03;;;;;;;;;;4975823;28;20085;-72
2023/04/12 04:20:14;;;;;;;8.10;3.17;;;;;;;;;;4975276;28;20251;-72
2023/04/12 04:22:44;;;;;;;7.00;2.95;;;;;;;;;;4978095;28;20114;-71
2023/04/12 04:25:13;;;;;;;4.68;3.38;;;;;;;;;;4977268;28;20094;-72
2023/04/12 04:27:39;;;;;;;4.82;3.42;;;;;;;;;;4981712;28;20018;-73
2023/04/12 04:30:05;;;;;;;3.90;2.60;;;;;;;;;;4979531;28;20367;-73
2023/04/12 04:32:34;;;;;;;9.43;3.67;;;;;;;;;;4972069;28;20035;-74
2023/04/12 04:35:00;;;;;;;5.20;3.35;;;;;;;;;;4970935;28;20493;-71
2023/04/12 04:37:35;;;;;;;7.18;3.00;;;;;;;;;;4970257;28;20391;-75
2023/04/12 04:40:11;;;;;;;5.10;4.05;;;;;;;;;;4972128;28;20027;-71
2023/04/12 04:42:38;;;;;;;7.57;3.42;;;;;;;;;;4971618;28;20058;-71
2023/04/12 04:45:11;;;;;;;10.88;3.90;;;;;;;;;;4970247;28;20464;-71
2023/04/12 04:47:38;;;;;;;5.05;2.90;;;;;;;;;;4970105;28;20335;-70
2023/04/12 04:50:05;;;;;;;3.08;2.78;;;;;;;;;;4969719;28;20117;-72
2023/04/12 04:52:31;;;;;;;5.72;3.70;;;;;;;;;;4969220;28;20109;-71
2023/04/12 04:54:57;;;;;;;3.80;3.13;;;;;;;;;;4969469;28;20039;-71
2023/04/12 04:57:25;;;;;;;6.25;3.80;;;;;;;;;;4970350;28;20107;-72
2023/04/12 04:59:51;;;;;;;4.18;3.28;;;;;;;;;;4971817;28;20030;-73
2023/04/12 05:02:17;;;;;;;3.35;2.35;;;;;;;;;;4971987;28;20027;-74
2023/04/12 05:04:43;;;;;;;5.75;2.85;;;;;;;;;;4971351;28;20403;-72
2023/04/12 05:07:12;;;;;;;7.38;3.63;;;;;;;;;;4970041;28;20046;-71
2023/04/12 05:09:38;;;;;;;3.88;3.00;;;;;;;;;;4969314;28;20081;-71
2023/04/12 05:12:04;;;;;;;4.40;2.75;;;;;;;;;;4970950;28;20031;-71
2023/04/12 05:14:30;;;;;;;5.07;3.40;;;;;;;;;;4971437;28;20082;-72
2023/04/12 05:16:56;;;;;;;4.90;3.60;;;;;;;;;;4971767;28;20162;-71
2023/04/12 05:19:22;;;;;;;4.80;2.85;;;;;;;;;;4970944;28;20106;-73
2023/04/12 05:21:48;;;;;;;6.50;3.60;;;;;;;;;;4971014;28;20126;-71
2023/04/12 05:24:14;;;;;;;5.00;2.85;;;;;;;;;;4970842;28;20035;-73
2023/04/12 05:26:40;;;;;;;3.10;2.55;;;;;;;;;;4970785;28;20110;-74
2023/04/12 05:29:06;;;;;;;3.95;2.38;;;;;;;;;;4969505;28;20369;-72
2023/04/12 05:31:32;;;;;;;5.35;3.25;;;;;;;;;;4969366;28;20031;-75
2023/04/12 05:33:58;;;;;;;6.00;2.60;;;;;;;;;;4970984;28;20399;-76
2023/04/12 05:36:24;;;;;;;2.92;2.45;;;;;;;;;;4971302;28;20034;-75
2023/04/12 05:38:51;;;;;;;3.90;2.78;;;;;;;;;;4970519;28;20058;-74
2023/04/12 05:41:17;;;;;;;4.40;3.50;;;;;;;;;;4971121;28;20098;-74
2023/04/12 05:43:43;;;;;;;3.67;2.30;;;;;;;;;;4970751;28;20063;-74
2023/04/12 05:46:10;;;;;;;10.73;2.90;;;;;;;;;;4969068;28;20027;-74
2023/04/12 05:48:36;;;;;;;3.80;2.65;;;;;;;;;;4970558;28;20034;-73
2023/04/12 05:51:04;;;;;;;8.40;3.33;;;;;;;;;;4974686;28;20074;-74
2023/04/12 05:53:31;;;;;;;3.88;3.42;;;;;;;;;;4974482;28;20049;-73
2023/04/12 05:55:57;;;;;;;6.95;3.92;;;;;;;;;;4974537;28;20023;-74
2023/04/12 05:58:24;;;;;;;6.53;3.47;;;;;;;;;;4974557;28;20031;-74
2023/04/12 06:00:50;;;;;;;7.07;3.63;;;;;;;;;;4974486;28;20137;-74
2023/04/12 06:03:16;;;;;;;6.22;3.13;;;;;;;;;;4974134;28;20034;-75
2023/04/12 06:05:42;;;;;;;4.00;3.03;;;;;;;;;;4974252;28;20023;-73
2023/04/12 06:08:09;;;;;;;4.20;3.10;;;;;;;;;;4974135;28;20383;-73
2023/04/12 06:10:35;;;;;;;4.80;3.10;;;;;;;;;;4974117;28;20146;-73
2023/04/12 06:13:01;;;;;;;6.68;4.25;;;;;;;;;;4974228;28;20518;-73
2023/04/12 06:15:27;;;;;;;3.58;2.72;;;;;;;;;;4974154;28;20027;-73
2023/04/12 06:17:53;;;;;;;3.83;3.05;;;;;;;;;;4974097;28;20029;-74
2023/04/12 06:20:22;;;;;;;4.43;2.20;;;;;;;;;;4973876;28;20416;-73
2023/04/12 06:22:49;;;;;;;7.65;3.25;;;;;;;;;;4973816;28;20030;-73
2023/04/12 06:25:15;;;;;;;5.13;3.50;;;;;;;;;;4974015;28;20023;-73
2023/04/12 06:27:43;;;;;;;6.72;3.80;;;;;;;;;;4973650;28;20074;-73
2023/04/12 06:30:21;;;;;;;6.72;4.05;;;;;;;;;;4974022;28;20034;-74
2023/04/12 06:32:47;;;;;;;6.93;3.92;;;;;;;;;;4972429;28;20031;-73
2023/04/12 06:35:13;;;;;;;3.80;2.70;;;;;;;;;;4973752;28;20041;-73
2023/04/12 06:37:39;;;;;;;7.53;3.35;;;;;;;;;;4974229;28;20026;-73
2023/04/12 06:40:11;;;;;;;6.28;3.40;;;;;;;;;;4974361;28;20081;-74
2023/04/12 06:42:37;;;;;;;4.43;3.95;;;;;;;;;;4974508;28;20035;-74
2023/04/12 06:45:10;;;;;;;5.72;2.63;;;;;;;;;;4972778;28;20029;-73
2023/04/12 06:47:36;;;;;;;7.47;3.15;;;;;;;;;;4973739;28;20113;-73
2023/04/12 06:50:02;;;;;;;2.95;2.50;;;;;;;;;;4973541;28;20035;-74
2023/04/12 06:52:28;;;;;;;5.95;2.63;;;;;;;;;;4971915;28;20255;-73
2023/04/12 06:54:55;;;;;;;2.90;2.60;;;;;;;;;;4973428;28;20074;-73
2023/04/12 06:57:21;;;;;;;3.08;2.20;;;;;;;;;;4973321;28;20038;-73
2023/04/12 06:59:47;;;;;;;4.35;2.95;;;;;;;;;;4972448;28;20022;-73
2023/04/12 07:02:13;;;;;;;4.13;2.50;;;;;;;;;;4973161;28;20053;-73
2023/04/12 07:04:40;;;;;;;3.25;2.33;;;;;;;;;;4973299;28;20102;-74
2023/04/12 07:07:06;;;;;;;4.25;2.33;;;;;;;;;;4972996;28;20027;-74
2023/04/12 07:09:32;;;;;;;3.28;2.67;;;;;;;;;;4972939;28;20104;-74
2023/04/12 07:11:59;;;;;;;5.00;3.00;;;;;;;;;;4971751;28;20027;-74
2023/04/12 07:14:25;;;;;;;4.88;2.88;;;;;;;;;;4973102;28;20321;-74
2023/04/12 07:16:54;;;;;;;2.95;2.50;;;;;;;;;;4972714;28;20019;-74
2023/04/12 07:19:20;;;;;;;2.38;2.08;;;;;;;;;;4972997;28;20023;-73
2023/04/12 07:21:46;;;;;;;8.82;3.63;;;;;;;;;;4971601;28;20432;-73
2023/04/12 07:24:15;;;;;;;2.92;1.88;;;;;;;;;;4972980;28;20101;-73
2023/04/12 07:26:41;;;;;;;3.15;2.30;;;;;;;;;;4972770;28;20027;-73
2023/04/12 07:29:07;;;;;;;2.40;2.20;;;;;;;;;;4971958;28;20042;-73
2023/04/12 07:31:34;;;;;;;3.22;2.25;;;;;;;;;;4972889;28;20408;-74
2023/04/12 07:34:00;;;;;;;3.10;2.47;;;;;;;;;;4972494;28;20035;-73
2023/04/12 07:36:26;;;;;;;4.65;2.60;;;;;;;;;;4972535;28;20546;-73
2023/04/12 07:38:54;;;;;;;4.78;2.63;;;;;;;;;;4972104;28;20035;-74
2023/04/12 07:41:24;;;;;;;5.53;2.63;;;;;;;;;;4951137;28;20019;-74
2023/04/12 07:43:50;;;;;;;4.10;2.25;;;;;;;;;;4951657;28;20027;-74
2023/04/12 07:46:16;;;;;;;12.05;3.83;;;;;;;;;;4951094;28;20102;-73
2023/04/12 07:48:43;;;;;;;3.67;2.45;;;;;;;;;;4952245;28;20031;-73
2023/04/12 07:51:09;;;;;;;6.43;2.28;;;;;;;;;;4952334;28;20057;-73
2023/04/12 07:53:35;;;;;;;5.22;2.60;;;;;;;;;;4952481;28;20039;-74
2023/04/12 07:56:03;;;;;;;3.20;2.20;;;;;;;;;;4952844;28;20676;-74
2023/04/12 07:58:30;;;;;;;4.00;2.85;;;;;;;;;;4952880;28;20361;-75
2023/04/12 08:00:56;;;;;;;5.03;2.80;;;;;;;;;;4953626;28;20019;-75
2023/04/12 08:03:23;;;;;;;5.13;2.17;;;;;;;;;;4952785;28;20416;-73
2023/04/12 08:05:52;;;;;;;4.50;2.60;;;;;;;;;;4935833;28;20029;-76
2023/04/12 08:08:24;;;;;;;4.00;2.60;;;;;;;;;;4952342;28;20114;-73
2023/04/12 08:10:51;;;;;;;3.65;2.75;;;;;;;;;;4952456;28;20355;-73
2023/04/12 08:13:17;;;;;;;4.50;2.83;;;;;;;;;;4951687;28;20046;-73
2023/04/12 08:15:45;;;;;;;4.30;2.55;;;;;;;;;;4952837;28;20038;-73
2023/04/12 08:18:12;;;;;;;2.85;2.55;;;;;;;;;;4935260;29;20031;-73
2023/04/12 08:20:43;;;;;;;2.75;2.50;;;;;;;;;;4952872;28;20039;-73
2023/04/12 08:23:09;;;;;;;4.25;3.10;;;;;;;;;;4952991;28;20031;-73
2023/04/12 08:25:36;;;;;;;3.08;2.50;;;;;;;;;;4952300;28;20146;-74
2023/04/12 08:28:02;;;;;;;6.60;2.65;;;;;;;;;;4952574;28;20027;-74
2023/04/12 08:30:28;;;;;;;4.82;2.50;;;;;;;;;;4952394;28;20038;-73
2023/04/12 08:32:55;;;;;;;6.57;2.60;;;;;;;;;;4935037;28;20431;-73
2023/04/12 08:35:21;;;;;;;9.57;3.15;;;;;;;;;;4952232;28;20039;-74
2023/04/12 08:37:51;;;;;;;5.38;3.22;;;;;;;;;;4951416;28;20357;-74
2023/04/12 08:40:20;;;;;;;3.97;3.10;;;;;;;;;;4951072;28;20038;-73
2023/04/12 08:42:46;;;;;;;;;;;;;;;;;;4970302;28;20080;-74
2023/04/12 08:45:12;;;;;;;4.20;2.83;;;;;;;;;;4969775;28;19996;-76
2023/04/12 08:47:40;;;;;;;5.53;3.05;;;;;;;;;;4969603;28;20027;-74
2023/04/12 08:50:08;;;;;;;5.63;2.55;;;;;;;;;;4969553;28;20041;-74
2023/04/12 08:52:34;;;;;;;3.47;2.80;;;;;;;;;;4970390;28;20031;-74
2023/04/12 08:55:06;;;;;;;3.53;2.92;;;;;;;;;;4960730;28;20026;-74
2023/04/12 08:57:34;;;;;;;3.78;2.55;;;;;;;;;;4950913;29;20023;-74
2023/04/12 09:00:00;;;;;;;4.22;2.60;;;;;;;;;;4950077;29;20023;-77
2023/04/12 09:02:27;;;;;;;2.92;2.40;;;;;;;;;;4951625;29;20031;-75
2023/04/12 09:04:53;;;;;;;3.20;2.00;;;;;;;;;;4949674;29;20106;-77
2023/04/12 09:07:22;;;;;;;3.72;2.67;;;;;;;;;;4951698;29;20036;-77
2023/04/12 09:09:48;;;;;;;4.17;3.10;;;;;;;;;;4951393;29;20130;-76
2023/04/12 09:12:14;;;;;;;5.82;2.42;;;;;;;;;;4934373;29;20027;-77
2023/04/12 09:14:44;;;;;;;2.03;1.70;;;;;;;;;;4951809;29;20039;-76
2023/04/12 09:17:10;;;;;;;;;;;;;;;;;;4952130;29;20581;-75
2023/04/12 09:19:36;;;;;;;2.70;1.52;;;;;;;;;;4951476;29;19953;-76
2023/04/12 09:22:02;;;;;;;2.00;1.50;;;;;;;;;;4951502;29;20392;-76
2023/04/12 09:24:29;;;;;;;5.22;2.33;;;;;;;;;;4950780;29;20108;-73
2023/04/12 09:27:05;;;;;;;3.35;1.88;;;;;;;;;;4951549;29;20027;-73
2023/04/12 09:29:32;;;;;;;5.10;1.98;;;;;;;;;;4951540;29;20031;-77
2023/04/12 09:32:02;;;;;;;3.33;1.13;;;;;;;;;;4951371;29;20023;-77
2023/04/12 09:34:29;;;;;;;1.42;1.08;;;;;;;;;;4934011;29;20050;-77
2023/04/12 09:36:55;;;;;;;1.30;0.80;;;;;;;;;;4957084;28;20106;-75
2023/04/12 09:39:30;;;;;;;2.38;1.60;;;;;;;;;;4968373;28;20023;-73
2023/04/12 09:42:09;;;;;;;6.85;3.05;;;;;;;;;;4968675;28;20278;-73
2023/04/12 09:44:35;;;;;;;5.55;2.15;;;;;;;;;;4968764;28;20023;-73
2023/04/12 09:47:03;;;;;;;1.77;1.17;;;;;;;;;;4969669;28;20038;-73
2023/04/12 09:49:37;;;;;;;5.45;1.73;;;;;;;;;;4969352;28;20121;-73
2023/04/12 09:52:03;;;;;;;5.25;3.00;;;;;;;;;;4969629;28;20134;-73
2023/04/12 09:54:29;;;;;;;16.35;4.28;;;;;;;;;;4968962;28;20041;-73
2023/04/12 09:56:56;;;;;;;14.02;4.55;;;;;;;;;;4971028;28;20196;-76
2023/04/12 09:59:27;;;;;;;13.40;4.65;;;;;;;;;;4969125;28;20164;-72
2023/04/12 10:01:54;;;;;;;3.78;1.60;;;;;;;;;;4969029;28;20023;-77
2023/04/12 10:04:20;;;;;;;4.88;1.75;;;;;;;;;;4961798;28;20031;-77
2023/04/12 10:06:46;;;;;;;7.47;3.22;;;;;;;;;;4967040;28;20206;-75
2023/04/12 10:09:13;;;;;;;1.23;0.80;;;;;;;;;;4962822;28;20034;-74
2023/04/12 10:11:40;;;;;;;34.22;12.27;;;;;;;;;;4930585;29;20053;-73
2023/04/12 10:14:06;;;;;;;15.02;5.47;;;;;;;;;;4948892;29;20049;-72
2023/04/12 10:16:36;;;;;;;2.05;1.02;;;;;;;;;;4930620;29;20051;-72
2023/04/12 10:19:02;;;;;;;1.80;1.42;;;;;;;;;;4947885;29;20403;-72
2023/04/12 10:21:29;;;;;;;2.33;0.90;;;;;;;;;;4938623;28;20031;-73
2023/04/12 10:23:56;;;;;;;3.40;1.08;;;;;;;;;;4947568;28;20488;-74
2023/04/12 10:26:22;;;;;;;4.03;0.90;;;;;;;;;;4947616;28;20387;-74
2023/04/12 10:29:08;;;;;;;2.38;1.48;;;;;;;;;;4965273;28;20472;-73
2023/04/12 10:31:34;;;;;;;2.25;1.00;;;;;;;;;;4965136;28;20022;-72
2023/04/12 10:34:03;;;;;;;1.35;0.85;;;;;;;;;;4965224;28;20038;-71
2023/04/12 10:36:48;;;;;;;2.70;0.82;;;;;;;;;;4967624;28;20046;-71
2023/04/12 10:39:14;;;;;;;2.13;0.75;;;;;;;;;;4969570;28;20483;-71
2023/04/12 10:42:00;;;;;;;3.22;2.08;;;;;;;;;;4970123;28;20103;-72
2023/04/12 10:44:26;;;;;;;0.77;0.68;;;;;;;;;;4970227;28;20111;-72
2023/04/12 10:46:52;;;;;;;0.82;0.70;;;;;;;;;;4969014;28;20031;-72
2023/04/12 10:49:19;;;;;;;2.78;0.93;;;;;;;;;;4969391;28;20027;-71
2023/04/12 10:52:00;;;;;;;1.02;0.77;;;;;;;;;;4971092;28;20454;-71
2023/04/12 10:54:27;;;;;;;2.17;0.55;;;;;;;;;;4970088;28;20041;-71
2023/04/12 10:56:54;;;;;;;2.92;0.50;;;;;;;;;;4968571;28;20027;-72
2023/04/12 10:59:20;;;;;;;3.30;1.05;;;;;;;;;;4953452;28;20492;-72
2023/04/12 11:02:05;;;;;;;1.77;0.80;;;;;;;;;;4950676;29;20169;-71
2023/04/12 11:04:31;;;;;;;0.98;0.50;;;;;;;;;;4951333;29;20035;-72
2023/04/12 11:07:02;;;;;;;0.52;0.52;;;;;;;;;;4949262;29;20049;-71
2023/04/12 11:09:34;;;;;;;0.68;0.57;;;;;;;;;;4950319;29;20027;-71
2023/04/12 11:12:03;;;;;;;0.47;0.47;;;;;;;;;;4951261;29;20039;-71
2023/04/12 11:14:34;;;;;;;0.73;0.57;;;;;;;;;;4950340;29;20058;-73
2023/04/12 11:17:06;;;;;;;0.30;0.30;;;;;;;;;;4950436;29;20113;-72
2023/04/12 11:19:33;;;;;;;1.98;0.85;;;;;;;;;;4951021;29;20495;-72
2023/04/12 11:22:06;;;;;;;1.65;0.70;;;;;;;;;;4951088;29;20031;-74
2023/04/12 11:24:32;;;;;;;3.38;0.50;;;;;;;;;;4950309;29;20090;-73
2023/04/12 11:26:59;;;;;;;2.55;0.45;;;;;;;;;;4950349;29;20069;-73
2023/04/12 11:29:31;;;;;;;0.77;0.75;;;;;;;;;;4950303;29;20130;-73
2023/04/12 11:31:57;;;;;;;1.73;0.60;;;;;;;;;;4950098;29;20178;-74
2023/04/12 11:34:24;;;;;;;0.45;0.40;;;;;;;;;;4950478;29;20042;-75
2023/04/12 11:36:53;;;;;;;2.25;0.93;;;;;;;;;;4950180;29;20558;-75
2023/04/12 11:39:20;;;;;;;;;;;;;;;;;;4950493;29;20027;-72
2023/04/12 11:41:49;;;;;;;1.17;0.60;;;;;;;;;;4932889;29;19914;-73
2023/04/12 11:44:20;;;;;;;0.55;0.40;;;;;;;;;;4950359;29;20057;-76
2023/04/12 11:46:46;;;;;;;1.00;0.40;;;;;;;;;;4949647;28;20027;-72
2023/04/12 11:49:16;;;;;;;1.52;0.65;;;;;;;;;;4951453;29;20057;-71
2023/04/12 11:51:42;;;;;;;0.80;0.57;;;;;;;;;;4952330;29;20057;-71
2023/04/12 11:54:10;;;;;;;3.63;1.05;;;;;;;;;;4951227;28;20035;-73
2023/04/12 11:56:36;;;;;;;0.98;0.88;;;;;;;;;;4968014;28;20510;-71
2023/04/12 11:59:02;;;;;;;2.08;0.68;;;;;;;;;;4972209;28;20070;-71
2023/04/12 12:01:30;;;;;;;1.58;0.50;;;;;;;;;;4972464;28;20353;-71
2023/04/12 12:03:56;;;;;;;3.10;0.35;;;;;;;;;;4972267;28;20023;-71
2023/04/12 12:06:23;;;;;;;0.47;0.30;;;;;;;;;;4972352;28;20468;-72
2023/04/12 12:08:55;;;;;;;0.65;0.40;;;;;;;;;;4971772;28;20027;-73
2023/04/12 12:11:25;;;;;;;0.82;0.40;;;;;;;;;;4971918;28;20506;-72
2023/04/12 12:13:55;;;;;;;1.23;0.30;;;;;;;;;;4970881;28;20050;-71
2023/04/12 12:16:25;;;;;;;0.93;0.30;;;;;;;;;;4971342;28;20027;-71
2023/04/12 12:18:51;;;;;;;1.63;0.40;;;;;;;;;;4971372;28;20027;-71
2023/04/12 12:21:18;;;;;;;0.20;0.20;;;;;;;;;;4969242;28;20139;-72
2023/04/12 12:23:45;;;;;;;0.47;0.30;;;;;;;;;;4970197;28;20484;-72
2023/04/12 12:26:18;;;;;;;1.42;0.50;;;;;;;;;;4969964;28;20106;-72
2023/04/12 12:28:48;;;;;;;0.68;0.40;;;;;;;;;;4969906;28;20154;-72
2023/04/12 12:31:19;;;;;;;0.30;0.20;;;;;;;;;;4968760;28;20047;-75
2023/04/12 12:33:45;;;;;;;0.40;0.40;;;;;;;;;;4970024;28;20275;-77
2023/04/12 12:36:12;;;;;;;0.40;0.40;;;;;;;;;;4970233;28;20011;-71
2023/04/12 12:38:39;;;;;;;0.30;0.30;;;;;;;;;;4970133;28;20050;-72
2023/04/12 12:41:15;;;;;;;2.03;0.20;;;;;;;;;;4969827;28;20491;-71
2023/04/12 12:43:48;;;;;;;0.25;0.20;;;;;;;;;;4970049;28;20074;-71
2023/04/12 12:46:14;;;;;;;0.90;0.50;;;;;;;;;;4952300;28;20045;-71
2023/04/12 12:48:41;;;;;;;2.70;0.30;;;;;;;;;;4950835;28;20119;-73
2023/04/12 12:51:10;;;;;;;0.95;0.40;;;;;;;;;;4933148;28;20016;-71
2023/04/12 12:53:37;;;;;;;0.43;0.30;;;;;;;;;;4950177;28;20031;-71
2023/04/12 12:56:03;;;;;;;0.20;0.20;;;;;;;;;;4951992;28;20047;-71
2023/04/12 12:58:29;;;;;;;0.20;0.20;;;;;;;;;;4951514;28;20031;-71
2023/04/12 13:00:55;;;;;;;0.20;0.20;;;;;;;;;;4952050;28;20051;-71
2023/04/12 13:03:21;;;;;;;0.45;0.25;;;;;;;;;;4951896;28;20422;-70
2023/04/12 13:05:47;;;;;;;0.20;0.20;;;;;;;;;;4952019;28;20029;-71
2023/04/12 13:08:13;;;;;;;0.10;0.10;;;;;;;;;;4951490;28;20029;-71
2023/04/12 13:10:39;;;;;;;0.47;0.30;;;;;;;;;;4951704;28;20051;-77
2023/04/12 13:13:05;;;;;;;0.20;0.13;;;;;;;;;;4952097;28;20031;-71
2023/04/12 13:15:31;;;;;;;0.25;0.20;;;;;;;;;;4952133;28;20020;-71
2023/04/12 13:17:57;;;;;;;0.20;0.20;;;;;;;;;;4952124;28;20204;-72
2023/04/12 13:20:24;;;;;;;0.10;0.10;;;;;;;;;;4952010;28;20464;-72
2023/04/12 13:22:51;;;;;;;2.53;0.20;;;;;;;;;;4951500;28;20546;-71
2023/04/12 13:25:20;;;;;;;0.47;0.17;;;;;;;;;;4934376;28;20102;-71
2023/04/12 13:27:49;;;;;;;0.38;0.38;;;;;;;;;;4951811;28;20043;-71
2023/04/12 13:30:15;;;;;;;;;;;;;;;;;;4951791;28;20021;-71
2023/04/12 13:32:43;;;;;;;0.45;0.45;;;;;;;;;;4951335;28;20360;-70
2023/04/12 13:35:09;;;;;;;0.50;0.50;;;;;;;;;;4951805;28;20046;-71
2023/04/12 13:37:36;;;;;;;0.20;0.20;;;;;;;;;;4951482;28;20016;-70
2023/04/12 13:40:02;;;;;;;1.35;0.40;;;;;;;;;;4950584;28;20023;-72
2023/04/12 13:42:28;;;;;;;0.20;0.20;;;;;;;;;;4951475;28;20028;-72
2023/04/12 13:44:54;;;;;;;0.38;0.35;;;;;;;;;;4952368;28;20059;-74
2023/04/12 13:47:21;;;;;;;2.45;0.77;;;;;;;;;;4951597;28;20038;-71
2023/04/12 13:49:47;;;;;;;0.30;0.30;;;;;;;;;;4934200;29;20119;-73
2023/04/12 13:52:13;;;;;;;0.20;0.20;;;;;;;;;;4950872;28;20234;-77
2023/04/12 13:54:42;;;;;;;2.00;0.43;;;;;;;;;;4948933;28;20059;-72
2023/04/12 13:57:08;;;;;;;0.40;0.40;;;;;;;;;;4949814;28;20519;-73
2023/04/12 13:59:34;;;;;;;3.00;0.30;;;;;;;;;;4950613;28;20043;-75
2023/04/12 14:02:00;;;;;;;0.40;0.20;;;;;;;;;;4933868;28;20126;-74
2023/04/12 14:04:27;;;;;;;0.63;0.40;;;;;;;;;;4951387;28;20115;-70
2023/04/12 14:06:53;;;;;;;1.10;0.22;;;;;;;;;;4950587;28;20403;-70
2023/04/12 14:09:24;;;;;;;0.20;0.20;;;;;;;;;;4933016;29;20416;-74
2023/04/12 14:11:50;;;;;;;0.20;0.20;;;;;;;;;;4937652;28;20185;-73
2023/04/12 14:14:16;;;;;;;2.28;1.23;;;;;;;;;;4954964;28;20039;-73
2023/04/12 14:16:43;;;;;;;0.50;0.30;;;;;;;;;;4954930;28;20259;-71
2023/04/12 14:19:09;;;;;;;0.28;0.28;;;;;;;;;;4937592;28;20027;-71
2023/04/12 14:21:36;;;;;;;1.25;0.40;;;;;;;;;;4937637;28;20102;-71
2023/04/12 14:24:02;;;;;;;0.43;0.43;;;;;;;;;;4954691;28;20034;-73
2023/04/12 14:26:28;;;;;;;0.95;0.20;;;;;;;;;;4937458;29;20102;-73
2023/04/12 14:28:54;;;;;;;0.50;0.20;;;;;;;;;;4954639;28;20059;-71
2023/04/12 14:31:20;;;;;;;0.88;0.30;;;;;;;;;;4954609;28;20480;-70
2023/04/12 14:33:47;;;;;;;0.20;0.20;;;;;;;;;;4954592;28;20039;-71
2023/04/12 14:36:12;;;;;;;0.10;0.10;;;;;;;;;;4954271;28;20027;-76
2023/04/12 14:38:40;;;;;;;0.93;0.55;;;;;;;;;;4954124;28;20510;-72
2023/04/12 14:41:07;;;;;;;0.20;0.20;;;;;;;;;;4963719;28;20114;-73
2023/04/12 14:43:33;;;;;;;0.17;0.17;;;;;;;;;;4973592;28;20073;-72
2023/04/12 14:45:59;;;;;;;0.20;0.20;;;;;;;;;;4972372;28;20031;-76